Time;durP1;ratioP1;P1;durP2;ratioP2;P2;SDS_P1;SDS_P2;PMS_P1;PMS_P2;Temp;Humidity;BMP_temperature;BMP_pressure;BME280_temperature;BME280_humidity;BME280_pressure;Samples;Min_cycle;Max_cycle;Signal;HPM_P1;HPM_P2
2021/05/03 00:02:09;;;;;;;6.38;3.13;;;3.90;92.50;;;;;;5053135;28;20029;-81
2021/05/03 00:04:35;;;;;;;5.25;2.83;;;3.80;93.10;;;;;;5067224;28;20059;-81
2021/05/03 00:07:01;;;;;;;7.07;2.83;;;3.70;93.30;;;;;;5052307;28;20029;-81
2021/05/03 00:09:27;;;;;;;6.82;3.67;;;3.70;94.70;;;;;;5070320;28;20457;-81
2021/05/03 00:11:54;;;;;;;4.28;3.40;;;3.80;94.90;;;;;;5066166;28;20045;-81
2021/05/03 00:14:20;;;;;;;5.93;3.17;;;3.70;94.80;;;;;;5064135;28;20044;-81
2021/05/03 00:16:46;;;;;;;5.13;2.72;;;3.60;95.00;;;;;;5052069;28;20041;-81
2021/05/03 00:19:12;;;;;;;4.75;2.90;;;3.60;96.00;;;;;;5062918;28;20378;-80
2021/05/03 00:21:38;;;;;;;4.88;2.72;;;3.60;96.30;;;;;;5051957;28;20454;-81
2021/05/03 00:24:05;;;;;;;5.35;3.22;;;3.50;96.70;;;;;;5052127;28;20036;-81
2021/05/03 00:26:31;;;;;;;4.97;3.13;;;3.50;98.00;;;;;;5051115;28;20053;-81
2021/05/03 00:28:58;;;;;;;3.90;2.67;;;3.50;97.70;;;;;;5050596;28;20029;-81
2021/05/03 00:31:24;;;;;;;3.80;2.42;;;3.30;98.60;;;;;;5061767;28;20033;-82
2021/05/03 00:33:50;;;;;;;3.58;2.50;;;3.20;99.20;;;;;;5065206;28;20045;-81
2021/05/03 00:36:16;;;;;;;6.20;4.15;;;3.10;99.90;;;;;;5056476;28;20056;-81
2021/05/03 00:38:42;;;;;;;5.57;3.10;;;3.10;99.90;;;;;;5060335;28;20466;-81
2021/05/03 00:41:09;;;;;;;4.40;2.60;;;3.10;99.90;;;;;;5051829;28;20036;-81
2021/05/03 00:43:35;;;;;;;6.60;3.20;;;3.10;99.90;;;;;;5051282;28;20512;-81
2021/05/03 00:46:01;;;;;;;4.57;2.95;;;3.00;99.90;;;;;;5062123;28;20036;-80
2021/05/03 00:48:27;;;;;;;4.53;3.08;;;2.90;99.90;;;;;;5052134;28;20477;-80
2021/05/03 00:50:54;;;;;;;6.50;3.33;;;2.80;99.90;;;;;;5058742;28;20032;-80
2021/05/03 00:53:20;;;;;;;7.68;3.33;;;2.80;99.90;;;;;;5068515;28;20044;-80
2021/05/03 00:55:47;;;;;;;6.57;3.80;;;2.90;99.90;;;;;;5051396;28;20037;-80
2021/05/03 00:58:13;;;;;;;6.15;3.83;;;2.90;99.90;;;;;;5051629;28;20462;-80
2021/05/03 01:00:40;;;;;;;6.13;3.38;;;2.90;99.90;;;;;;5051733;28;20037;-80
2021/05/03 01:03:07;;;;;;;11.20;3.42;;;2.80;99.90;;;;;;5051806;28;20056;-81
2021/05/03 01:05:34;;;;;;;6.75;3.63;;;2.70;99.90;;;;;;5052032;28;20083;-80
2021/05/03 01:08:02;;;;;;;4.32;3.22;;;2.70;99.90;;;;;;5067213;28;20045;-80
2021/05/03 01:10:29;;;;;;;6.18;3.22;;;2.60;99.90;;;;;;5051521;28;20036;-80
2021/05/03 01:12:57;;;;;;;10.57;3.70;;;2.50;99.90;;;;;;5051084;28;20464;-80
2021/05/03 01:15:24;;;;;;;9.55;3.33;;;2.40;99.90;;;;;;5051869;28;20509;-80
2021/05/03 01:17:56;;;;;;;7.97;3.22;;;2.30;99.90;;;;;;5055654;28;20064;-80
2021/05/03 01:20:25;;;;;;;7.18;3.58;;;2.30;99.90;;;;;;5061554;28;20041;-80
2021/05/03 01:22:54;;;;;;;8.73;2.95;;;2.20;99.90;;;;;;5050584;28;20049;-81
2021/05/03 01:25:21;;;;;;;6.70;3.85;;;2.20;99.90;;;;;;5052242;28;20033;-80
2021/05/03 01:27:50;;;;;;;7.57;4.10;;;2.30;99.90;;;;;;5058085;28;20037;-80
2021/05/03 01:30:17;;;;;;;7.03;3.10;;;2.40;99.90;;;;;;5060278;28;20029;-80
2021/05/03 01:32:43;;;;;;;8.80;3.78;;;2.30;99.90;;;;;;5051198;28;20044;-81
2021/05/03 01:35:13;;;;;;;7.57;3.85;;;2.10;99.90;;;;;;5063314;28;20032;-81
2021/05/03 01:37:40;;;;;;;11.68;3.22;;;1.90;99.90;;;;;;5066548;28;20370;-81
2021/05/03 01:40:08;;;;;;;10.70;3.97;;;1.80;99.90;;;;;;5057577;28;20029;-80
2021/05/03 01:42:35;;;;;;;8.10;3.85;;;1.80;99.90;;;;;;5067361;28;20032;-80
2021/05/03 01:45:03;;;;;;;7.72;3.42;;;1.90;99.90;;;;;;5075760;28;20043;-81
2021/05/03 01:47:31;;;;;;;9.45;3.67;;;1.90;99.90;;;;;;5092169;28;20052;-80
2021/05/03 01:49:58;;;;;;;11.20;3.90;;;1.80;99.90;;;;;;5054832;28;20117;-81
2021/05/03 01:52:24;;;;;;;11.02;3.60;;;1.70;99.90;;;;;;5061947;28;20044;-81
2021/05/03 01:54:51;;;;;;;11.05;3.70;;;1.60;99.90;;;;;;5060566;28;20033;-80
2021/05/03 01:57:19;;;;;;;7.82;4.40;;;1.70;99.90;;;;;;5064847;28;20039;-81
2021/05/03 01:59:47;;;;;;;8.13;3.75;;;1.80;99.90;;;;;;5061694;28;20044;-81
2021/05/03 02:02:14;;;;;;;7.10;3.75;;;1.90;99.90;;;;;;5054750;28;20028;-80
2021/05/03 02:04:40;;;;;;;11.85;4.47;;;1.80;99.90;;;;;;5063860;28;20405;-80
2021/05/03 02:07:06;;;;;;;10.68;4.28;;;1.70;99.90;;;;;;5061378;28;20036;-80
2021/05/03 02:09:32;;;;;;;9.38;3.60;;;1.60;99.90;;;;;;5070133;28;20045;-81
2021/05/03 02:11:59;;;;;;;9.13;4.18;;;1.60;99.90;;;;;;5054459;28;20040;-80
2021/05/03 02:14:25;;;;;;;10.80;4.45;;;1.70;99.90;;;;;;5056434;28;20032;-81
2021/05/03 02:16:51;;;;;;;7.75;3.72;;;1.80;99.90;;;;;;5057361;28;20048;-80
2021/05/03 02:19:17;;;;;;;8.68;3.55;;;1.80;99.90;;;;;;5053794;28;20029;-80
2021/05/03 02:21:44;;;;;;;9.48;4.38;;;1.70;99.90;;;;;;5060876;28;20032;-81
2021/05/03 02:24:10;;;;;;;8.93;3.78;;;1.70;99.90;;;;;;5057648;28;20040;-81
2021/05/03 02:26:37;;;;;;;6.72;4.05;;;1.70;99.90;;;;;;5057602;28;20085;-80
2021/05/03 02:29:03;;;;;;;11.38;4.55;;;1.80;99.90;;;;;;5070331;28;20028;-80
2021/05/03 02:31:29;;;;;;;7.13;4.13;;;1.70;99.90;;;;;;5055554;28;20038;-80
2021/05/03 02:33:55;;;;;;;12.10;3.67;;;1.70;99.90;;;;;;5067042;28;20045;-81
2021/05/03 02:36:21;;;;;;;8.30;4.10;;;1.70;99.90;;;;;;5054172;28;20457;-81
2021/05/03 02:38:47;;;;;;;9.80;4.18;;;1.80;99.90;;;;;;5069603;28;20044;-82
2021/05/03 02:41:14;;;;;;;7.05;3.33;;;1.80;99.90;;;;;;5039812;28;20048;-81
2021/05/03 02:43:41;;;;;;;8.40;3.60;;;1.90;99.90;;;;;;5069117;28;20052;-82
2021/05/03 02:46:07;;;;;;;5.80;4.18;;;1.80;99.90;;;;;;5053009;28;20025;-81
2021/05/03 02:48:33;;;;;;;7.82;3.90;;;1.70;99.90;;;;;;5053950;28;20037;-81
2021/05/03 02:50:59;;;;;;;10.27;3.63;;;1.60;99.90;;;;;;5053720;28;20195;-81
2021/05/03 02:53:26;;;;;;;5.50;3.90;;;1.50;99.90;;;;;;5054229;28;20036;-81
2021/05/03 02:55:52;;;;;;;7.43;4.07;;;1.50;99.90;;;;;;5068197;28;20052;-82
2021/05/03 02:58:18;;;;;;;9.07;3.80;;;1.60;99.90;;;;;;5054432;28;20068;-81
2021/05/03 03:00:44;;;;;;;7.43;3.75;;;1.70;99.90;;;;;;5053454;28;20033;-81
2021/05/03 03:03:11;;;;;;;6.80;4.85;;;1.70;99.90;;;;;;5061446;28;20039;-81
2021/05/03 03:05:37;;;;;;;5.78;3.63;;;1.70;99.90;;;;;;5068978;28;20394;-81
2021/05/03 03:08:04;;;;;;;7.05;3.90;;;1.80;99.90;;;;;;5069002;28;20049;-81
2021/05/03 03:10:31;;;;;;;6.65;4.32;;;1.80;99.90;;;;;;5054141;28;20459;-81
2021/05/03 03:13:02;;;;;;;7.88;4.47;;;2.00;99.90;;;;;;5062860;28;20646;-80
2021/05/03 03:15:34;;;;;;;8.75;3.85;;;2.00;99.90;;;;;;5068978;28;20037;-81
2021/05/03 03:18:01;;;;;;;6.90;3.85;;;2.10;99.90;;;;;;5063920;28;20603;-81
2021/05/03 03:20:27;;;;;;;6.63;3.97;;;2.10;99.90;;;;;;5051864;28;20045;-80
2021/05/03 03:22:54;;;;;;;7.47;3.80;;;2.10;99.90;;;;;;5067756;28;20477;-81
2021/05/03 03:25:20;;;;;;;5.18;3.55;;;2.10;99.90;;;;;;5064038;28;20037;-81
2021/05/03 03:27:46;;;;;;;6.50;4.05;;;2.10;99.90;;;;;;5053257;28;20029;-81
2021/05/03 03:30:15;;;;;;;7.28;4.15;;;2.20;99.90;;;;;;5054590;28;20025;-81
2021/05/03 03:32:44;;;;;;;6.13;4.03;;;2.20;99.90;;;;;;5054401;28;20060;-80
2021/05/03 03:35:15;;;;;;;5.57;4.07;;;2.30;99.90;;;;;;5053291;28;20474;-80
2021/05/03 03:37:42;;;;;;;6.68;3.85;;;2.50;99.90;;;;;;5052154;28;20048;-80
2021/05/03 03:40:14;;;;;;;8.27;3.78;;;2.50;99.90;;;;;;5054008;28;20033;-81
2021/05/03 03:42:40;;;;;;;6.07;4.03;;;2.40;99.90;;;;;;5053281;28;20041;-81
2021/05/03 03:45:08;;;;;;;7.50;4.13;;;2.30;99.90;;;;;;5068469;28;20394;-81
2021/05/03 03:47:35;;;;;;;7.30;3.88;;;2.20;99.90;;;;;;5068093;28;20052;-81
2021/05/03 03:50:02;;;;;;;7.38;3.95;;;2.20;99.90;;;;;;5052724;28;20025;-82
2021/05/03 03:52:28;;;;;;;7.80;4.18;;;2.10;99.90;;;;;;5053038;28;20025;-81
2021/05/03 03:54:55;;;;;;;5.93;4.13;;;2.10;99.90;;;;;;5066900;28;20041;-82
2021/05/03 03:57:21;;;;;;;7.32;4.32;;;2.10;99.90;;;;;;5053080;28;20060;-81
2021/05/03 03:59:50;;;;;;;8.75;4.38;;;2.20;99.90;;;;;;5067378;28;20025;-81
2021/05/03 04:02:16;;;;;;;5.65;3.75;;;2.30;99.90;;;;;;5052202;28;20029;-81
2021/05/03 04:04:48;;;;;;;8.45;4.18;;;2.30;99.90;;;;;;5050255;28;20482;-81
2021/05/03 04:07:23;;;;;;;7.47;4.25;;;2.30;99.90;;;;;;5051574;28;20049;-81
2021/05/03 04:10:02;;;;;;;8.20;4.47;;;2.30;99.90;;;;;;5051954;28;20037;-81
2021/05/03 04:21:04;;;;;;;6.40;3.90;;;2.50;99.90;;;;;;5060641;28;20104;-79
2021/05/03 04:26:15;;;;;;;8.57;4.05;;;2.70;99.90;;;;;;5051368;28;20044;-80
2021/05/03 04:28:43;;;;;;;7.93;4.30;;;2.80;99.90;;;;;;5067264;28;20040;-81
2021/05/03 04:31:09;;;;;;;6.25;4.10;;;2.80;99.90;;;;;;5051826;28;20036;-80
2021/05/03 04:33:36;;;;;;;7.45;4.32;;;2.80;99.90;;;;;;5065467;28;20044;-79
2021/05/03 04:36:03;;;;;;;9.65;7.15;;;2.80;99.90;;;;;;5063961;28;20025;-80
2021/05/03 04:38:29;;;;;;;11.23;6.45;;;2.80;99.90;;;;;;5054531;28;20048;-80
2021/05/03 04:40:56;;;;;;;7.65;5.05;;;2.80;99.90;;;;;;5074415;28;20036;-78
2021/05/03 04:43:22;;;;;;;5.60;4.28;;;2.90;99.90;;;;;;5059699;28;20478;-79
2021/05/03 04:45:48;;;;;;;7.07;4.57;;;2.80;99.90;;;;;;5047394;28;20059;-80
2021/05/03 04:48:16;;;;;;;6.13;4.03;;;3.00;99.90;;;;;;5050129;28;20041;-80
2021/05/03 04:50:43;;;;;;;5.40;3.92;;;3.00;99.90;;;;;;5065860;28;20049;-81
2021/05/03 04:53:09;;;;;;;5.85;3.53;;;3.10;99.90;;;;;;5071056;28;20384;-80
2021/05/03 04:55:36;;;;;;;5.30;4.10;;;3.30;99.90;;;;;;5056093;28;20033;-80
2021/05/03 04:58:02;;;;;;;5.50;4.38;;;3.30;99.90;;;;;;5050492;28;20041;-80
2021/05/03 05:00:29;;;;;;;5.18;3.85;;;3.40;99.90;;;;;;5066099;28;20041;-80
2021/05/03 05:02:55;;;;;;;6.72;3.80;;;3.40;99.90;;;;;;5051569;28;20414;-80
2021/05/03 05:05:21;;;;;;;7.90;3.92;;;3.50;99.90;;;;;;5051744;28;20033;-81
2021/05/03 05:07:48;;;;;;;6.72;4.50;;;3.80;99.90;;;;;;5066992;28;20032;-80
2021/05/03 05:10:14;;;;;;;4.80;3.83;;;4.50;99.90;;;;;;5057557;28;20482;-80
2021/05/03 05:12:40;;;;;;;5.50;3.55;;;5.10;99.90;;;;;;5059570;28;20060;-80
2021/05/03 05:15:07;;;;;;;5.32;3.35;;;5.10;99.90;;;;;;5057015;28;20027;-81
2021/05/03 05:17:35;;;;;;;7.75;4.15;;;5.10;99.90;;;;;;5071312;28;20043;-84
2021/05/03 05:20:03;;;;;;;4.45;3.20;;;5.20;99.90;;;;;;5056661;28;20029;-84
2021/05/03 05:22:30;;;;;;;5.07;3.20;;;6.40;99.90;;;;;;5068902;28;20032;-84
2021/05/03 05:24:56;;;;;;;8.25;3.35;;;8.20;90.30;;;;;;5053353;28;20100;-84
2021/05/03 05:27:22;;;;;;;5.03;3.15;;;9.60;76.70;;;;;;5052166;28;20472;-82
2021/05/03 05:29:48;;;;;;;5.00;3.28;;;11.00;69.60;;;;;;5069339;28;20037;-82
2021/05/03 05:32:14;;;;;;;5.82;3.47;;;12.10;64.40;;;;;;5065246;28;20048;-82
2021/05/03 05:34:41;;;;;;;6.15;3.15;;;12.10;60.80;;;;;;5085885;28;20049;-82
2021/05/03 05:37:07;;;;;;;5.75;3.25;;;11.50;62.10;;;;;;5077056;28;20041;-83
2021/05/03 05:39:33;;;;;;;7.00;3.35;;;11.30;62.40;;;;;;5055719;28;20041;-82
2021/05/03 05:42:00;;;;;;;8.95;4.70;;;10.70;63.40;;;;;;5055017;28;20025;-82
2021/05/03 05:44:26;;;;;;;6.05;4.32;;;9.20;68.40;;;;;;5054950;28;20033;-83
2021/05/03 05:46:52;;;;;;;14.27;8.68;;;8.00;73.60;;;;;;5054938;28;20045;-82
2021/05/03 05:49:18;;;;;;;10.35;6.57;;;7.40;78.20;;;;;;5059126;28;20072;-81
2021/05/03 05:51:45;;;;;;;9.18;5.10;;;7.20;81.30;;;;;;5069542;28;20375;-81
2021/05/03 05:54:11;;;;;;;7.63;5.55;;;7.30;83.90;;;;;;5055042;28;20429;-82
2021/05/03 05:56:37;;;;;;;9.98;5.95;;;7.50;83.10;;;;;;5055219;28;20032;-81
2021/05/03 05:59:04;;;;;;;53.97;31.98;;;7.60;83.50;;;;;;5054526;28;20110;-81
2021/05/03 06:01:30;;;;;;;12.65;8.20;;;8.20;83.30;;;;;;5073346;28;20033;-82
2021/05/03 06:03:56;;;;;;;9.70;5.35;;;10.20;76.00;;;;;;5068879;28;20041;-82
2021/05/03 06:06:22;;;;;;;32.30;20.58;;;12.20;67.20;;;;;;5061454;28;20040;-83
2021/05/03 06:08:49;;;;;;;9.45;6.10;;;13.70;60.90;;;;;;5065884;28;20043;-82
2021/05/03 06:11:15;;;;;;;9.93;5.97;;;12.60;59.90;;;;;;5065359;28;20036;-81
2021/05/03 06:13:42;;;;;;;51.33;33.30;;;12.00;62.70;;;;;;5059567;28;20041;-82
2021/05/03 06:16:08;;;;;;;7.63;5.75;;;13.10;60.90;;;;;;5062992;28;20033;-83
2021/05/03 06:18:35;;;;;;;89.72;64.45;;;12.90;59.10;;;;;;5054575;28;20041;-82
2021/05/03 06:21:01;;;;;;;127.60;100.75;;;12.00;60.20;;;;;;5060782;28;20505;-81
2021/05/03 06:23:27;;;;;;;10.80;6.45;;;10.50;65.40;;;;;;5054566;28;20442;-82
2021/05/03 06:25:54;;;;;;;20.55;16.65;;;10.20;65.90;;;;;;5054284;28;20108;-81
2021/05/03 06:28:22;;;;;;;31.20;25.75;;;9.70;68.60;;;;;;5055186;28;20053;-81
2021/05/03 06:30:54;;;;;;;10.05;7.75;;;9.60;69.60;;;;;;5054067;28;20033;-80
2021/05/03 06:33:21;;;;;;;12.63;8.32;;;9.20;70.90;;;;;;5054557;28;20044;-81
2021/05/03 06:35:47;;;;;;;11.85;9.25;;;9.70;69.50;;;;;;5063391;28;20036;-80
2021/05/03 06:38:14;;;;;;;13.40;8.45;;;10.70;67.90;;;;;;5054582;28;20037;-81
2021/05/03 06:40:40;;;;;;;9.65;6.35;;;12.50;62.10;;;;;;5054571;28;20028;-81
2021/05/03 06:43:07;;;;;;;9.02;7.45;;;13.70;58.80;;;;;;5065909;28;20474;-81
2021/05/03 06:45:34;;;;;;;8.75;6.45;;;14.10;58.00;;;;;;5060860;28;20363;-81
2021/05/03 06:48:05;;;;;;;11.10;7.03;;;13.80;55.60;;;;;;5064861;28;20150;-80
2021/05/03 06:50:31;;;;;;;9.27;6.28;;;13.30;56.20;;;;;;5054629;28;20043;-81
2021/05/03 06:52:58;;;;;;;10.02;7.20;;;12.90;56.40;;;;;;5062779;28;20029;-80
2021/05/03 06:55:24;;;;;;;24.90;17.92;;;12.70;58.30;;;;;;5054137;28;20025;-82
2021/05/03 06:57:50;;;;;;;13.15;9.23;;;12.30;59.20;;;;;;5053445;28;20048;-80
2021/05/03 07:00:17;;;;;;;13.02;7.32;;;11.90;58.70;;;;;;5067551;28;20501;-81
2021/05/03 07:02:44;;;;;;;14.20;9.50;;;11.50;60.70;;;;;;5059746;28;20386;-83
2021/05/03 07:05:11;;;;;;;9.95;7.78;;;12.20;60.80;;;;;;5067497;28;20039;-84
2021/05/03 07:07:38;;;;;;;10.18;8.50;;;14.20;56.90;;;;;;5070477;28;20029;-83
2021/05/03 07:10:06;;;;;;;66.63;44.20;;;15.70;54.10;;;;;;5073055;28;20367;-83
2021/05/03 07:12:48;;;;;;;9.77;7.28;;;15.30;53.30;;;;;;5059553;28;20044;-83
2021/05/03 07:15:16;;;;;;;13.45;9.80;;;16.10;52.30;;;;;;5069122;28;20033;-83
2021/05/03 07:17:43;;;;;;;19.65;12.35;;;16.40;51.00;;;;;;5072937;28;20121;-81
2021/05/03 07:20:10;;;;;;;8.93;6.65;;;17.00;50.30;;;;;;5076887;28;20043;-84
2021/05/03 07:22:37;;;;;;;9.43;5.72;;;16.40;49.60;;;;;;5094605;28;20437;-84
2021/05/03 07:25:05;;;;;;;9.15;5.95;;;16.30;50.30;;;;;;5086240;28;20256;-87
2021/05/03 07:27:32;;;;;;;9.30;6.28;;;16.00;49.70;;;;;;5080511;28;20397;-87
2021/05/03 07:29:58;;;;;;;7.45;6.25;;;16.30;50.10;;;;;;5066183;28;20033;-86
2021/05/03 07:32:25;;;;;;;7.07;6.30;;;15.50;49.40;;;;;;5054053;28;20397;-86
2021/05/03 07:34:51;;;;;;;7.15;6.07;;;15.50;50.70;;;;;;5055310;28;20029;-86
2021/05/03 07:37:18;;;;;;;12.15;9.02;;;15.60;49.60;;;;;;5059118;28;20031;-84
2021/05/03 07:39:44;;;;;;;6.57;5.80;;;15.20;50.60;;;;;;5055790;28;20033;-85
2021/05/03 07:42:11;;;;;;;10.45;8.30;;;15.90;49.50;;;;;;5053327;28;20028;-85
2021/05/03 07:44:37;;;;;;;15.77;6.82;;;16.00;50.20;;;;;;5053679;28;20032;-85
2021/05/03 07:47:04;;;;;;;11.20;6.95;;;15.70;48.70;;;;;;5061619;28;20031;-85
2021/05/03 07:49:30;;;;;;;15.70;8.25;;;16.00;49.40;;;;;;5071151;28;20029;-84
2021/05/03 07:51:56;;;;;;;8.35;6.50;;;16.50;49.70;;;;;;5065216;28;20501;-87
2021/05/03 07:54:23;;;;;;;9.07;6.18;;;15.80;48.80;;;;;;5053476;28;20033;-88
2021/05/03 07:56:49;;;;;;;12.00;8.27;;;15.20;49.80;;;;;;5061337;28;20044;-88
2021/05/03 07:59:15;;;;;;;8.98;8.02;;;16.00;50.00;;;;;;5070976;28;20040;-88
2021/05/03 08:01:42;;;;;;;19.88;7.50;;;16.80;48.80;;;;;;5070213;28;20036;-88
2021/05/03 08:04:08;;;;;;;10.43;7.28;;;15.00;49.00;;;;;;5062244;28;20029;-88
2021/05/03 08:06:34;;;;;;;8.20;6.20;;;15.40;49.80;;;;;;5071120;28;20500;-88
2021/05/03 08:09:05;;;;;;;8.30;5.82;;;16.60;48.40;;;;;;5071535;28;20040;-89
2021/05/03 08:11:32;;;;;;;7.43;5.50;;;16.90;47.60;;;;;;5057471;28;20029;-88
2021/05/03 08:13:58;;;;;;;9.77;5.72;;;17.00;47.20;;;;;;5053942;28;20040;-89
2021/05/03 08:16:26;;;;;;;8.98;6.13;;;16.50;46.90;;;;;;5055048;28;20409;-88
2021/05/03 08:18:53;;;;;;;10.40;6.43;;;16.70;47.00;;;;;;5053173;28;20037;-88
2021/05/03 08:21:19;;;;;;;6.45;5.65;;;16.80;45.70;;;;;;5068610;28;20056;-88
2021/05/03 08:23:46;;;;;;;9.25;6.15;;;15.00;49.40;;;;;;5069723;28;20033;-88
2021/05/03 08:26:12;;;;;;;11.25;5.30;;;15.10;49.40;;;;;;5066129;28;20036;-83
2021/05/03 08:28:46;;;;;;;5.78;5.22;;;16.10;47.80;;;;;;5061820;28;20043;-86
2021/05/03 08:31:12;;;;;;;9.07;5.50;;;15.80;48.40;;;;;;5052855;28;20422;-87
2021/05/03 08:33:38;;;;;;;6.88;5.47;;;17.00;46.90;;;;;;5052044;28;20045;-87
2021/05/03 08:36:05;;;;;;;9.00;5.38;;;16.70;46.80;;;;;;5066771;28;20050;-83
2021/05/03 08:38:31;;;;;;;6.53;4.93;;;15.70;46.50;;;;;;5054643;28;20493;-86
2021/05/03 08:40:59;;;;;;;8.70;5.20;;;15.50;48.40;;;;;;5051668;28;20040;-85
2021/05/03 08:43:29;;;;;;;7.88;5.25;;;16.50;46.30;;;;;;5070077;28;20032;-86
2021/05/03 08:45:55;;;;;;;5.57;4.32;;;16.70;44.80;;;;;;5066354;28;20055;-83
2021/05/03 08:48:34;;;;;;;6.80;5.35;;;17.60;44.80;;;;;;5069358;28;20037;-85
2021/05/03 08:53:36;;;;;;;16.42;6.97;;;15.40;47.10;;;;;;5051004;28;20060;-86
2021/05/03 08:56:03;;;;;;;11.27;6.43;;;14.80;46.60;;;;;;5051999;28;20367;-85
2021/05/03 08:58:29;;;;;;;8.07;5.78;;;14.20;48.30;;;;;;5052411;28;20492;-85
2021/05/03 09:00:56;;;;;;;8.60;6.47;;;14.00;48.10;;;;;;5050560;28;20497;-85
2021/05/03 09:03:23;;;;;;;11.38;6.65;;;13.70;47.70;;;;;;5069884;28;20033;-86
2021/05/03 09:05:50;;;;;;;13.60;7.18;;;13.40;48.50;;;;;;5063795;28;20029;-86
2021/05/03 09:08:27;;;;;;;14.27;7.00;;;13.80;48.90;;;;;;5064231;28;20040;-85
2021/05/03 09:10:55;;;;;;;8.98;6.30;;;15.10;47.70;;;;;;5074826;28;20041;-86
2021/05/03 09:13:28;;;;;;;19.00;6.72;;;15.90;45.10;;;;;;5074149;28;20048;-86
2021/05/03 09:16:21;;;;;;;6.40;5.70;;;15.90;44.20;;;;;;5074709;28;20453;-86
2021/05/03 09:18:49;;;;;;;8.13;5.53;;;14.00;46.90;;;;;;5070100;28;20036;-86
2021/05/03 09:21:23;;;;;;;7.53;5.53;;;13.50;47.50;;;;;;5055674;28;20474;-85
2021/05/03 09:24:25;;;;;;;7.35;6.07;;;13.30;47.80;;;;;;5067228;28;20032;-85
2021/05/03 09:27:07;;;;;;;29.17;7.88;;;12.70;48.80;;;;;;5048730;28;20044;-85
2021/05/03 09:29:39;;;;;;;12.52;6.20;;;12.20;50.80;;;;;;5059873;28;20048;-87
2021/05/03 09:32:12;;;;;;;9.00;6.15;;;12.30;51.20;;;;;;5062517;28;20143;-87
2021/05/03 09:34:52;;;;;;;21.23;5.82;;;12.50;50.90;;;;;;5064512;28;20044;-86
2021/05/03 09:37:27;;;;;;;7.60;5.53;;;13.80;49.10;;;;;;5078103;28;20036;-86
2021/05/03 09:39:58;;;;;;;7.55;4.75;;;14.80;47.70;;;;;;5073761;28;20055;-86
2021/05/03 09:42:40;;;;;;;6.80;4.90;;;16.10;45.70;;;;;;5062720;28;20033;-87
2021/05/03 09:45:16;;;;;;;7.35;5.22;;;16.60;43.80;;;;;;5059029;28;20044;-87
2021/05/03 09:47:43;;;;;;;6.50;4.68;;;16.90;43.40;;;;;;5075313;28;20091;-86
2021/05/03 09:50:16;;;;;;;7.30;4.40;;;16.90;44.00;;;;;;5059159;28;20041;-87
2021/05/03 09:53:12;;;;;;;9.07;5.13;;;15.80;44.10;;;;;;5057968;28;20040;-87
2021/05/03 09:55:44;;;;;;;7.47;4.55;;;15.10;44.90;;;;;;5057703;28;20039;-86
2021/05/03 09:58:22;;;;;;;10.02;4.50;;;14.20;46.30;;;;;;5060099;28;20033;-87
2021/05/03 10:00:50;;;;;;;8.63;4.35;;;13.60;46.30;;;;;;5073272;28;20051;-86
2021/05/03 10:03:36;;;;;;;9.73;4.47;;;13.50;47.10;;;;;;5071851;28;20028;-84
2021/05/03 10:06:15;;;;;;;12.68;4.82;;;13.80;47.40;;;;;;5094870;28;20036;-85
2021/05/03 10:08:46;;;;;;;8.18;4.15;;;14.20;45.30;;;;;;5079471;28;20023;-85
2021/05/03 10:11:15;;;;;;;8.82;4.53;;;15.40;44.50;;;;;;5082144;28;20028;-78
2021/05/03 10:13:45;;;;;;;8.73;4.17;;;15.40;44.10;;;;;;5096850;28;20027;-86
2021/05/03 10:16:12;;;;;;;7.30;4.57;;;14.90;45.50;;;;;;5073093;28;20045;-85
2021/05/03 10:18:41;;;;;;;5.38;4.72;;;14.70;46.20;;;;;;5057176;28;20134;-86
2021/05/03 10:21:11;;;;;;;8.27;4.40;;;14.10;47.00;;;;;;5069093;28;20476;-80
2021/05/03 10:23:39;;;;;;;;;;;13.70;46.40;;;;;;5058128;28;20029;-81
2021/05/03 10:26:06;;;;;;;5.40;4.40;;;13.80;47.20;;;;;;5056442;28;20268;-81
2021/05/03 10:28:52;;;;;;;9.48;4.25;;;13.50;46.00;;;;;;5055462;28;20041;-83
2021/05/03 10:31:19;;;;;;;5.13;4.63;;;13.90;46.10;;;;;;5057065;28;20040;-80
2021/05/03 10:33:46;;;;;;;8.38;4.40;;;13.90;46.70;;;;;;5056916;28;20478;-80
2021/05/03 10:36:33;;;;;;;5.95;4.05;;;14.30;46.90;;;;;;5057165;28;20351;-80
2021/05/03 10:39:00;;;;;;;6.40;5.30;;;14.40;47.10;;;;;;5056189;28;20458;-79
2021/05/03 10:41:32;;;;;;;7.18;4.28;;;14.30;46.20;;;;;;5055951;28;20382;-79
2021/05/03 10:44:20;;;;;;;4.32;3.58;;;14.20;46.40;;;;;;5057121;28;20080;-81
2021/05/03 10:49:18;;;;;;;18.23;7.65;;;14.00;46.30;;;;;;5067297;28;20037;-81
2021/05/03 10:51:56;;;;;;;11.77;6.60;;;14.10;46.50;;;;;;5062442;28;20033;-81
2021/05/03 10:54:28;;;;;;;5.65;4.32;;;14.30;45.80;;;;;;5056338;28;20025;-80
2021/05/03 10:57:00;;;;;;;7.38;5.15;;;14.60;45.80;;;;;;5056261;28;20036;-80
2021/05/03 10:59:44;;;;;;;5.28;3.90;;;14.70;44.90;;;;;;5055549;28;20052;-81
2021/05/03 11:02:12;;;;;;;6.78;3.78;;;14.00;45.40;;;;;;5056435;28;20391;-81
2021/05/03 11:04:58;;;;;;;14.88;4.68;;;14.20;45.10;;;;;;5056383;28;20044;-82
2021/05/03 11:07:25;;;;;;;15.05;4.47;;;14.70;45.70;;;;;;5056715;28;20025;-81
2021/05/03 11:09:52;;;;;;;10.38;4.10;;;15.00;43.50;;;;;;5060017;28;20028;-82
2021/05/03 11:12:30;;;;;;;8.75;4.70;;;14.70;43.40;;;;;;5067110;28;20033;-83
2021/05/03 11:15:16;;;;;;;5.55;3.20;;;15.50;42.70;;;;;;5059718;28;20043;-81
2021/05/03 11:18:19;;;;;;;6.50;3.35;;;16.50;41.70;;;;;;5060631;28;20037;-82
2021/05/03 11:20:59;;;;;;;9.63;2.97;;;16.10;41.40;;;;;;5055269;28;20044;-81
2021/05/03 11:23:32;;;;;;;12.55;3.28;;;16.30;42.20;;;;;;5055684;28;20032;-81
2021/05/03 11:25:59;;;;;;;16.20;4.20;;;16.60;41.10;;;;;;5053428;28;20041;-82
2021/05/03 11:28:31;;;;;;;5.50;3.38;;;16.00;42.10;;;;;;5055414;28;20032;-84
2021/05/03 11:31:02;;;;;;;12.60;4.10;;;15.80;42.50;;;;;;5066126;28;20051;-83
2021/05/03 11:33:41;;;;;;;7.50;2.97;;;16.10;42.00;;;;;;5074183;28;20048;-84
2021/05/03 11:36:11;;;;;;;6.15;3.13;;;16.90;40.80;;;;;;5073857;28;20222;-82
2021/05/03 11:38:53;;;;;;;7.68;3.45;;;17.10;40.50;;;;;;5060120;28;20049;-82
2021/05/03 11:41:56;;;;;;;5.85;3.15;;;17.00;40.50;;;;;;5054864;28;20401;-84
2021/05/03 11:44:45;;;;;;;20.08;4.22;;;17.00;39.40;;;;;;5063143;28;20033;-82
2021/05/03 11:47:11;;;;;;;13.40;4.72;;;16.90;39.00;;;;;;5068862;28;20028;-83
2021/05/03 11:49:45;;;;;;;4.75;2.60;;;16.70;38.40;;;;;;5052986;28;20525;-81
2021/05/03 11:52:12;;;;;;;7.70;3.45;;;15.90;39.60;;;;;;5052831;28;20033;-83
2021/05/03 11:54:43;;;;;;;15.55;3.88;;;15.80;40.00;;;;;;5053511;28;20025;-82
2021/05/03 11:57:16;;;;;;;4.15;2.70;;;15.40;40.70;;;;;;5061340;28;20040;-82
2021/05/03 11:59:43;;;;;;;3.83;2.47;;;15.70;39.60;;;;;;5053072;28;20047;-81
2021/05/03 12:02:14;;;;;;;2.95;2.33;;;15.90;40.50;;;;;;5060542;28;20051;-82
2021/05/03 12:04:44;;;;;;;3.58;2.38;;;16.10;40.00;;;;;;5055079;28;20028;-82
2021/05/03 12:07:22;;;;;;;3.83;2.35;;;15.90;40.70;;;;;;5071057;28;20028;-79
2021/05/03 12:10:04;;;;;;;4.65;2.50;;;15.60;39.40;;;;;;5066127;28;20036;-78
2021/05/03 12:12:36;;;;;;;4.13;2.20;;;15.00;41.00;;;;;;5067343;28;20029;-79
2021/05/03 12:15:27;;;;;;;3.95;2.63;;;15.30;41.50;;;;;;5069054;28;20028;-79
2021/05/03 12:17:54;;;;;;;6.40;2.13;;;15.40;40.60;;;;;;5067841;28;20470;-79
2021/05/03 12:20:24;;;;;;;2.97;2.10;;;15.90;40.40;;;;;;5066292;28;20373;-84
2021/05/03 12:23:00;;;;;;;6.00;2.38;;;16.30;40.90;;;;;;5066532;28;20040;-81
2021/05/03 12:25:32;;;;;;;6.13;2.95;;;15.90;39.30;;;;;;5067117;28;20028;-80
2021/05/03 12:27:59;;;;;;;4.85;2.75;;;15.20;41.90;;;;;;5069451;28;20025;-79
2021/05/03 12:30:25;;;;;;;3.45;2.25;;;15.00;40.40;;;;;;5067719;28;20036;-74
2021/05/03 12:32:51;;;;;;;4.82;2.50;;;15.20;40.20;;;;;;5066437;28;20363;-78
2021/05/03 12:35:22;;;;;;;3.05;2.45;;;16.00;39.90;;;;;;5069309;28;20040;-77
2021/05/03 12:37:48;;;;;;;5.90;2.80;;;15.70;40.10;;;;;;5064971;28;20359;-78
2021/05/03 12:40:24;;;;;;;5.80;2.47;;;16.10;39.90;;;;;;5052914;28;20509;-78
2021/05/03 12:42:54;;;;;;;3.90;2.90;;;16.50;39.00;;;;;;5059469;28;20033;-77
2021/05/03 12:53:40;;;;;;;4.80;3.10;;;16.30;38.90;;;;;;5052002;28;20048;-82
2021/05/03 13:29:16;;;;;;;3.38;2.10;;;16.00;38.40;;;;;;5051912;28;20029;-77
2021/05/03 13:31:44;;;;;;;12.93;4.53;;;15.90;39.50;;;;;;5071079;28;20466;-77
2021/05/03 13:34:16;;;;;;;5.25;2.95;;;16.20;38.20;;;;;;5065290;28;20025;-77
2021/05/03 13:36:45;;;;;;;9.23;3.97;;;15.70;38.10;;;;;;5051427;28;20394;-77
2021/05/03 13:39:13;;;;;;;6.63;2.33;;;15.90;38.80;;;;;;5051009;28;20041;-76
2021/05/03 13:41:42;;;;;;;11.20;3.17;;;16.70;38.20;;;;;;5066266;28;20374;-77
2021/05/03 13:44:10;;;;;;;5.88;3.25;;;16.60;38.10;;;;;;5050847;28;20032;-77
2021/05/03 13:46:37;;;;;;;4.53;1.60;;;16.90;37.30;;;;;;5051412;28;20037;-77
2021/05/03 13:49:05;;;;;;;4.75;2.03;;;16.90;37.50;;;;;;5053359;28;20045;-78
2021/05/03 13:51:32;;;;;;;6.75;2.20;;;17.30;37.70;;;;;;5070411;28;20406;-77
2021/05/03 13:53:59;;;;;;;4.47;1.70;;;17.30;37.10;;;;;;5054479;28;20366;-76
2021/05/03 13:56:25;;;;;;;2.92;1.73;;;17.00;36.50;;;;;;5054943;28;20040;-76